Halifax (YHZ/CYHZ)

Map

Destinations

Information

Location
Halifax, Nova Scotia, Canada
Local Time
10:12 / 10:12 am
GMT Time
14:12 / 2:12 pm
Gates
Unassigned
No FAA reported delays
METAR CYHZ 221400Z 34010KT 2SM -SG BR OVC006 M02/M02 A2977 RMK ST8 SLP087
TAF TAF AMD CYHZ 221401Z 2214/2312 34010KT 2SM -SG BR OVC006 TEMPO 2214/2217 P6SM NSW SCT006 OVC012 FM221700 35010KT P6SM OVC015 TEMPO 2217/2219 BKN025 FM221900 35010KT P6SM BKN025 FM222300 35008KT P6SM BKN020 BECMG 2304/2306 02006KT FM231100 01010KT P6SM FEW020 RMK NXT FCST BY 221500Z
  • No charts available